createdAt,value
2019-03-26T00:02:01.711Z,23.70
2019-03-26T00:04:30.448Z,23.55
2019-03-26T00:07:02.858Z,26.02
2019-03-26T00:09:31.471Z,25.40
2019-03-26T00:12:01.002Z,24.45
2019-03-26T00:14:29.684Z,23.87
2019-03-26T00:16:58.490Z,25.72
2019-03-26T00:19:27.087Z,25.65
2019-03-26T00:21:55.526Z,24.65
2019-03-26T00:24:24.374Z,25.65
2019-03-26T00:26:53.716Z,24.47
2019-03-26T00:29:22.198Z,24.20
2019-03-26T00:31:54.590Z,24.10
2019-03-26T00:34:23.196Z,22.95
2019-03-26T00:36:52.073Z,22.27
2019-03-26T00:39:20.625Z,23.30
2019-03-26T00:41:49.054Z,22.75
2019-03-26T00:44:17.610Z,21.87
2019-03-26T00:46:46.247Z,19.95
2019-03-26T00:49:15.065Z,18.25
2019-03-26T00:51:43.861Z,18.75
2019-03-26T00:54:12.377Z,22.95
2019-03-26T00:56:41.120Z,18.92
2019-03-26T00:59:09.737Z,17.92
2019-03-26T01:01:38.359Z,18.23
2019-03-26T01:04:07.195Z,16.77
2019-03-26T01:06:36.274Z,17.07
2019-03-26T01:09:06.647Z,18.40
2019-03-26T01:11:36.156Z,17.42
2019-03-26T01:14:04.683Z,18.50
2019-03-26T01:16:34.113Z,18.42
2019-03-26T01:19:02.912Z,18.60
2019-03-26T01:21:31.622Z,17.32
2019-03-26T01:24:00.341Z,20.02
2019-03-26T01:26:31.029Z,18.90
2019-03-26T01:28:59.425Z,18.82
2019-03-26T01:31:27.955Z,18.77
2019-03-26T01:33:56.584Z,20.88
2019-03-26T01:36:26.173Z,20.68
2019-03-26T01:38:54.772Z,20.75
2019-03-26T01:41:25.573Z,22.40
2019-03-26T01:43:54.683Z,21.70
2019-03-26T01:46:25.593Z,20.88
2019-03-26T01:48:54.022Z,20.85
2019-03-26T01:51:22.406Z,20.95
2019-03-26T01:53:50.800Z,20.65
2019-03-26T01:56:19.313Z,19.25
2019-03-26T01:58:48.698Z,20.43
2019-03-26T02:01:19.092Z,18.07
2019-03-26T02:03:47.832Z,19.73
2019-03-26T02:06:17.096Z,17.92
2019-03-26T02:08:45.572Z,18.73
2019-03-26T02:11:14.268Z,19.55
2019-03-26T02:13:42.783Z,18.25
2019-03-26T02:16:11.207Z,17.27
2019-03-26T02:18:39.453Z,17.23
2019-03-26T02:21:08.800Z,16.87
2019-03-26T02:23:37.137Z,16.65
2019-03-26T02:26:05.778Z,18.65
2019-03-26T02:28:34.157Z,18.25
2019-03-26T02:31:02.840Z,16.67
2019-03-26T02:33:31.442Z,16.75
2019-03-26T02:35:59.834Z,15.80
2019-03-26T02:38:28.376Z,16.10
2019-03-26T02:40:56.736Z,15.68
2019-03-26T02:43:25.342Z,15.85
2019-03-26T02:45:54.963Z,15.23
2019-03-26T02:48:23.594Z,16.05
2019-03-26T02:50:53.600Z,15.65
2019-03-26T02:53:22.233Z,15.65
2019-03-26T02:55:52.376Z,16.07
2019-03-26T02:58:20.874Z,13.83
2019-03-26T03:00:49.442Z,14.23
2019-03-26T03:03:17.782Z,16.02
2019-03-26T03:05:46.032Z,14.18
2019-03-26T03:08:14.744Z,13.48
2019-03-26T03:10:44.680Z,13.68
2019-03-26T03:13:12.941Z,12.60
2019-03-26T03:15:41.587Z,14.63
2019-03-26T03:18:09.872Z,13.30
2019-03-26T03:20:41.658Z,14.23
2019-03-26T03:23:10.228Z,12.10
2019-03-26T03:25:38.729Z,14.00
2019-03-26T03:28:08.292Z,11.95
2019-03-26T03:30:36.893Z,12.70
2019-03-26T03:33:05.277Z,12.25
2019-03-26T03:35:50.746Z,13.03
2019-03-26T03:38:04.302Z,13.65
2019-03-26T03:40:33.073Z,12.53
2019-03-26T03:43:01.736Z,13.13
2019-03-26T03:45:30.995Z,12.33
2019-03-26T03:48:00.443Z,13.05
2019-03-26T03:50:31.536Z,13.00
2019-03-26T03:53:00.813Z,13.32
2019-03-26T03:55:30.531Z,11.83
2019-03-26T03:58:00.963Z,13.88
2019-03-26T04:00:33.647Z,12.05
2019-03-26T04:03:04.513Z,13.32
2019-03-26T04:05:33.041Z,11.85
2019-03-26T04:08:01.710Z,13.22
2019-03-26T04:10:30.379Z,12.37
2019-03-26T04:12:59.743Z,12.55
2019-03-26T04:15:28.609Z,12.30
2019-03-26T04:17:57.474Z,11.65
2019-03-26T04:20:26.515Z,12.75
2019-03-26T04:22:55.355Z,12.40
2019-03-26T04:25:25.545Z,13.43
2019-03-26T04:27:56.025Z,12.88
2019-03-26T04:30:31.538Z,11.53
2019-03-26T04:33:02.032Z,12.65
2019-03-26T04:35:30.729Z,12.10
2019-03-26T04:37:59.593Z,11.90
2019-03-26T04:40:28.141Z,11.70
2019-03-26T04:42:56.732Z,11.63
2019-03-26T04:45:25.404Z,11.85
2019-03-26T04:47:54.229Z,12.35
2019-03-26T04:50:22.851Z,13.08
2019-03-26T04:52:51.582Z,12.93
2019-03-26T04:55:20.153Z,12.45
2019-03-26T04:57:48.575Z,12.58
2019-03-26T05:00:17.689Z,12.88
2019-03-26T05:02:46.208Z,12.65
2019-03-26T05:05:14.582Z,13.00
2019-03-26T05:07:43.135Z,12.50
2019-03-26T05:10:11.683Z,13.70
2019-03-26T05:12:40.060Z,14.00
2019-03-26T05:15:08.524Z,14.38
2019-03-26T05:17:37.141Z,13.78
2019-03-26T05:20:06.798Z,14.00
2019-03-26T05:22:35.496Z,13.22
2019-03-26T05:25:04.704Z,14.65
2019-03-26T05:27:44.890Z,15.60
2019-03-26T05:30:04.107Z,13.05
2019-03-26T05:32:33.155Z,15.15
2019-03-26T05:35:01.602Z,13.85
2019-03-26T05:37:30.247Z,13.03
2019-03-26T05:39:58.464Z,14.98
2019-03-26T05:42:27.180Z,15.88
2019-03-26T05:44:55.973Z,14.05
2019-03-26T05:47:24.575Z,14.85
2019-03-26T05:49:52.960Z,14.53
2019-03-26T05:52:21.195Z,14.78
2019-03-26T05:54:49.836Z,15.15
2019-03-26T05:57:18.495Z,16.62
2019-03-26T05:59:46.805Z,15.48
2019-03-26T06:02:17.921Z,14.90
2019-03-26T06:04:45.219Z,14.58
2019-03-26T06:07:14.086Z,15.55
2019-03-26T06:09:42.695Z,17.32
2019-03-26T06:12:11.060Z,17.17
2019-03-26T06:14:40.530Z,16.45
2019-03-26T06:17:09.516Z,15.45
2019-03-26T06:19:37.903Z,16.10
2019-03-26T06:22:06.782Z,15.60
2019-03-26T06:24:35.302Z,15.55
2019-03-26T06:27:03.560Z,15.03
2019-03-26T06:29:32.224Z,15.28
2019-03-26T06:32:00.923Z,15.08
2019-03-26T06:34:29.560Z,13.95
2019-03-26T06:36:58.501Z,14.00
2019-03-26T06:39:33.112Z,15.15
2019-03-26T06:42:01.825Z,15.45
2019-03-26T06:44:30.105Z,15.18
2019-03-26T06:47:00.047Z,15.60
2019-03-26T06:49:28.728Z,14.38
2019-03-26T06:51:58.171Z,13.55
2019-03-26T06:54:26.484Z,14.83
2019-03-26T06:56:56.700Z,13.85
2019-03-26T06:59:24.978Z,13.32
2019-03-26T07:01:53.457Z,14.63
2019-03-26T07:04:21.991Z,14.28
2019-03-26T07:06:50.728Z,12.90
2019-03-26T07:09:18.959Z,12.98
2019-03-26T07:11:47.291Z,12.95
2019-03-26T07:14:15.574Z,12.13
2019-03-26T07:16:44.269Z,13.05
2019-03-26T07:19:12.500Z,13.35
2019-03-26T07:21:49.515Z,13.15
2019-03-26T07:24:13.607Z,12.65
2019-03-26T07:26:42.281Z,13.10
2019-03-26T07:29:10.891Z,12.60
2019-03-26T07:31:41.053Z,13.10
2019-03-26T07:34:09.611Z,13.35
2019-03-26T07:36:38.232Z,12.65
2019-03-26T07:39:08.172Z,11.38
2019-03-26T07:41:37.629Z,11.63
2019-03-26T07:44:06.091Z,11.78
2019-03-26T07:46:34.614Z,11.73
2019-03-26T07:49:02.987Z,11.85
2019-03-26T07:51:31.251Z,13.70
2019-03-26T07:53:59.540Z,12.05
2019-03-26T07:56:28.534Z,12.78
2019-03-26T07:58:57.158Z,12.30
2019-03-26T08:01:25.630Z,13.28
2019-03-26T08:03:59.874Z,12.10
2019-03-26T08:06:28.228Z,12.35
2019-03-26T08:08:56.818Z,12.00
2019-03-26T08:11:25.187Z,12.07
2019-03-26T08:13:53.435Z,11.20
2019-03-26T08:16:21.790Z,12.93
2019-03-26T08:18:50.325Z,11.80
2019-03-26T08:21:18.966Z,12.80
2019-03-26T08:23:47.340Z,11.10
2019-03-26T08:26:15.967Z,12.03
2019-03-26T08:28:44.339Z,11.63
2019-03-26T08:31:13.061Z,12.20
2019-03-26T08:33:42.089Z,11.57
2019-03-26T08:36:12.437Z,12.15
2019-03-26T08:38:40.726Z,12.33
2019-03-26T08:41:08.946Z,12.05
2019-03-26T08:43:37.246Z,12.18
2019-03-26T08:46:06.701Z,12.07
2019-03-26T08:48:35.751Z,12.45
2019-03-26T08:51:06.128Z,12.33
2019-03-26T08:53:34.772Z,12.00
2019-03-26T08:56:09.246Z,12.28
2019-03-26T08:58:37.614Z,11.22
2019-03-26T09:01:06.181Z,11.15
2019-03-26T09:03:34.520Z,10.18
2019-03-26T09:06:03.420Z,12.20
2019-03-26T09:08:31.732Z,11.22
2019-03-26T09:11:00.318Z,9.68
2019-03-26T09:13:28.828Z,10.05
2019-03-26T09:15:57.144Z,9.80
2019-03-26T09:18:25.746Z,10.25
2019-03-26T09:20:54.558Z,10.23
2019-03-26T09:23:23.186Z,10.70
2019-03-26T09:25:51.544Z,10.70
2019-03-26T09:28:20.100Z,11.48
2019-03-26T09:30:48.413Z,10.58
2019-03-26T09:33:18.008Z,9.90
2019-03-26T09:35:48.302Z,10.00
2019-03-26T09:38:16.874Z,10.20
2019-03-26T09:40:45.213Z,9.70
2019-03-26T09:43:13.880Z,8.70
2019-03-26T09:45:43.206Z,9.83
2019-03-26T09:48:11.637Z,10.00
2019-03-26T09:50:39.937Z,9.78
2019-03-26T09:53:08.199Z,10.55
2019-03-26T09:55:36.673Z,10.00
2019-03-26T09:58:04.879Z,9.75
2019-03-26T10:00:35.604Z,11.20
2019-03-26T10:03:04.288Z,10.70
2019-03-26T10:05:33.554Z,10.25
2019-03-26T10:08:02.032Z,10.98
2019-03-26T10:10:30.682Z,10.28
2019-03-26T10:12:58.956Z,11.30
2019-03-26T10:15:27.596Z,11.33
2019-03-26T10:17:56.320Z,12.65
2019-03-26T10:20:25.032Z,13.00
2019-03-26T10:22:53.283Z,13.15
2019-03-26T10:25:21.709Z,11.78
2019-03-26T10:27:50.212Z,12.35
2019-03-26T10:30:31.006Z,11.15
2019-03-26T10:32:59.573Z,13.70
2019-03-26T10:35:28.289Z,12.40
2019-03-26T10:37:56.532Z,11.80
2019-03-26T10:40:30.732Z,12.47
2019-03-26T10:42:59.425Z,13.78
2019-03-26T10:45:32.516Z,14.00
2019-03-26T10:48:01.720Z,14.13
2019-03-26T10:50:30.186Z,15.43
2019-03-26T10:52:59.109Z,15.75
2019-03-26T10:55:30.508Z,17.20
2019-03-26T10:57:59.058Z,14.70
2019-03-26T11:00:28.816Z,15.80
2019-03-26T11:02:57.335Z,15.25
2019-03-26T11:05:31.257Z,14.03
2019-03-26T11:07:59.546Z,15.30
2019-03-26T11:10:31.067Z,14.18
2019-03-26T11:12:59.424Z,16.32
2019-03-26T11:15:33.490Z,15.63
2019-03-26T11:18:02.063Z,16.52
2019-03-26T11:20:31.656Z,16.42
2019-03-26T11:23:00.331Z,16.07
2019-03-26T11:25:28.931Z,15.70
2019-03-26T11:27:58.209Z,15.68
2019-03-26T11:30:26.908Z,16.45
2019-03-26T11:32:55.414Z,18.17
2019-03-26T11:35:23.735Z,16.23
2019-03-26T11:37:51.979Z,18.35
2019-03-26T11:40:20.311Z,18.55
2019-03-26T11:42:48.947Z,15.10
2019-03-26T11:45:17.781Z,17.60
2019-03-26T11:47:46.265Z,17.55
2019-03-26T11:50:14.983Z,17.67
2019-03-26T11:52:43.617Z,17.57
2019-03-26T11:55:12.100Z,16.42
2019-03-26T11:57:40.709Z,15.35
2019-03-26T12:00:10.809Z,17.40
2019-03-26T12:02:39.055Z,16.00
2019-03-26T12:05:08.180Z,14.05
2019-03-26T12:07:36.759Z,15.55
2019-03-26T12:10:06.744Z,15.95
2019-03-26T12:12:37.321Z,16.67
2019-03-26T12:15:07.404Z,17.67
2019-03-26T12:17:35.831Z,22.30
2019-03-26T12:20:05.220Z,23.70
2019-03-26T12:22:39.716Z,26.05
2019-03-26T12:25:08.871Z,21.77
2019-03-26T12:27:39.512Z,18.32
2019-03-26T12:30:08.558Z,18.07
2019-03-26T12:32:41.138Z,16.00
2019-03-26T12:35:15.378Z,18.15
2019-03-26T12:37:44.975Z,17.55
2019-03-26T12:40:13.827Z,18.73
2019-03-26T12:42:42.328Z,16.90
2019-03-26T12:45:11.089Z,16.48
2019-03-26T12:47:39.714Z,17.85
2019-03-26T12:50:08.858Z,15.98
2019-03-26T12:52:37.827Z,15.72
2019-03-26T12:55:06.244Z,18.50
2019-03-26T12:57:35.550Z,17.05
2019-03-26T13:00:04.730Z,16.40
2019-03-26T13:02:35.856Z,17.10
2019-03-26T13:05:03.705Z,16.00
2019-03-26T13:07:32.099Z,16.87
2019-03-26T13:10:12.793Z,17.70
2019-03-26T13:12:31.508Z,18.55
2019-03-26T13:15:00.293Z,18.75
2019-03-26T13:17:29.357Z,17.67
2019-03-26T13:19:58.359Z,15.88
2019-03-26T13:22:26.662Z,17.35
2019-03-26T13:24:55.357Z,17.20
2019-03-26T13:27:23.602Z,17.55
2019-03-26T13:29:51.874Z,16.60
2019-03-26T13:32:20.697Z,18.40
2019-03-26T13:34:49.185Z,17.42
2019-03-26T13:37:21.654Z,17.80
2019-03-26T13:39:49.623Z,19.20
2019-03-26T13:42:17.834Z,18.25
2019-03-26T13:44:47.697Z,17.67
2019-03-26T13:47:16.402Z,17.75
2019-03-26T13:49:45.052Z,18.98
2019-03-26T13:52:13.336Z,19.15
2019-03-26T13:54:41.964Z,19.65
2019-03-26T13:57:10.288Z,18.80
2019-03-26T13:59:38.906Z,16.75
2019-03-26T14:02:07.365Z,20.70
2019-03-26T14:04:36.317Z,19.80
2019-03-26T14:07:04.802Z,19.07
2019-03-26T14:09:33.024Z,19.40
2019-03-26T14:12:02.005Z,17.32
2019-03-26T14:14:30.648Z,18.30
2019-03-26T14:16:58.977Z,20.92
2019-03-26T14:19:27.589Z,19.82
2019-03-26T14:21:57.349Z,20.95
2019-03-26T14:24:25.846Z,20.92
2019-03-26T14:26:55.239Z,19.92
2019-03-26T14:29:24.843Z,16.17
2019-03-26T14:31:54.011Z,16.00
2019-03-26T14:34:22.609Z,18.12
2019-03-26T14:36:54.616Z,20.62
2019-03-26T14:39:23.264Z,19.17
2019-03-26T14:41:51.913Z,19.32
2019-03-26T14:44:23.146Z,19.05
2019-03-26T14:46:51.755Z,18.75
2019-03-26T14:49:20.047Z,20.05
2019-03-26T14:51:48.336Z,17.98
2019-03-26T14:54:16.612Z,17.65
2019-03-26T14:56:48.021Z,17.37
2019-03-26T14:59:16.426Z,17.65
2019-03-26T15:01:46.073Z,17.37
2019-03-26T15:04:14.651Z,17.57
2019-03-26T15:06:43.280Z,16.50
2019-03-26T15:09:11.689Z,16.85
2019-03-26T15:11:40.242Z,17.20
2019-03-26T15:14:08.565Z,17.12
2019-03-26T15:16:36.938Z,17.52
2019-03-26T15:19:05.627Z,16.90
2019-03-26T15:21:34.185Z,17.25
2019-03-26T15:24:03.012Z,14.63
2019-03-26T15:26:31.572Z,17.73
2019-03-26T15:28:59.875Z,17.75
2019-03-26T15:31:28.137Z,18.17
2019-03-26T15:33:56.758Z,18.23
2019-03-26T15:36:25.172Z,17.20
2019-03-26T15:38:53.774Z,14.45
2019-03-26T15:41:22.319Z,14.35
2019-03-26T15:43:50.680Z,14.20
2019-03-26T15:46:20.223Z,15.65
2019-03-26T15:48:48.867Z,15.28
2019-03-26T15:51:17.265Z,14.53
2019-03-26T15:53:45.837Z,14.43
2019-03-26T15:56:14.107Z,16.67
2019-03-26T15:58:42.410Z,15.95
2019-03-26T16:01:12.860Z,15.95
2019-03-26T16:03:41.598Z,17.20
2019-03-26T16:06:14.933Z,17.60
2019-03-26T16:08:44.517Z,20.20
2019-03-26T16:11:14.267Z,22.00
2019-03-26T16:13:43.200Z,23.05
2019-03-26T16:16:12.237Z,22.20
2019-03-26T16:18:40.871Z,20.00
2019-03-26T16:21:12.906Z,22.77
2019-03-26T16:23:41.612Z,24.00
2019-03-26T16:26:12.315Z,23.47
2019-03-26T16:28:40.552Z,24.12
2019-03-26T16:31:10.787Z,20.50
2019-03-26T16:33:39.983Z,20.80
2019-03-26T16:36:12.413Z,19.98
2019-03-26T16:38:41.125Z,21.10
2019-03-26T16:41:10.630Z,20.75
2019-03-26T16:43:40.591Z,20.72
2019-03-26T16:46:09.904Z,23.25
2019-03-26T16:48:38.273Z,21.27
2019-03-26T16:51:07.044Z,21.60
2019-03-26T16:53:35.631Z,22.75
2019-03-26T16:56:05.952Z,19.23
2019-03-26T16:58:34.216Z,18.52
2019-03-26T17:01:02.923Z,22.30
2019-03-26T17:03:31.879Z,22.13
2019-03-26T17:06:00.331Z,22.90
2019-03-26T17:08:29.025Z,23.90
2019-03-26T17:10:57.698Z,24.72
2019-03-26T17:13:25.940Z,27.48
2019-03-26T17:15:54.676Z,25.35
2019-03-26T17:18:23.338Z,23.80
2019-03-26T17:20:51.958Z,21.60
2019-03-26T17:23:20.275Z,21.15
2019-03-26T17:25:48.553Z,20.88
2019-03-26T17:28:17.200Z,21.02
2019-03-26T17:30:45.530Z,17.48
2019-03-26T17:33:14.146Z,17.32
2019-03-26T17:35:42.511Z,18.00
2019-03-26T17:38:12.006Z,16.87
2019-03-26T17:40:40.629Z,17.10
2019-03-26T17:43:14.568Z,18.62
2019-03-26T17:45:43.573Z,16.85
2019-03-26T17:48:12.037Z,18.35
2019-03-26T17:50:41.696Z,19.25
2019-03-26T17:53:11.062Z,18.50
2019-03-26T17:55:39.334Z,18.50
2019-03-26T17:58:07.944Z,17.80
2019-03-26T18:00:39.496Z,17.52
2019-03-26T18:03:08.301Z,17.85
2019-03-26T18:05:36.934Z,17.57
2019-03-26T18:08:05.812Z,20.10
2019-03-26T18:10:34.374Z,18.90
2019-03-26T18:13:03.152Z,19.82
2019-03-26T18:15:31.737Z,19.25
2019-03-26T18:18:00.054Z,18.70
2019-03-26T18:20:33.059Z,17.80
2019-03-26T18:23:01.879Z,17.27
2019-03-26T18:25:30.644Z,18.37
2019-03-26T18:28:00.091Z,15.80
2019-03-26T18:30:28.857Z,15.10
2019-03-26T18:32:57.132Z,19.17
2019-03-26T18:35:25.703Z,17.02
2019-03-26T18:37:53.951Z,16.90
2019-03-26T18:40:22.595Z,16.67
2019-03-26T18:42:50.939Z,15.40
2019-03-26T18:45:19.633Z,16.40
2019-03-26T18:47:49.095Z,15.08
2019-03-26T18:50:18.507Z,18.50
2019-03-26T18:52:47.012Z,19.35
2019-03-26T18:55:15.745Z,27.50
2019-03-26T18:57:44.011Z,32.17
2019-03-26T19:00:14.219Z,30.27
2019-03-26T19:02:44.148Z,28.98
2019-03-26T19:05:12.940Z,31.20
2019-03-26T19:07:46.087Z,36.75
2019-03-26T19:10:26.750Z,34.10
2019-03-26T19:12:57.190Z,52.62
2019-03-26T19:15:28.184Z,51.10
2019-03-26T19:17:56.853Z,50.85
2019-03-26T19:20:25.299Z,48.30
2019-03-26T19:22:53.748Z,29.45
2019-03-26T19:25:22.274Z,26.50
2019-03-26T19:27:51.853Z,19.67
2019-03-26T19:30:20.466Z,23.42
2019-03-26T19:32:48.842Z,15.80
2019-03-26T19:35:17.425Z,14.45
2019-03-26T19:37:45.790Z,14.47
2019-03-26T19:40:14.335Z,16.25
2019-03-26T19:42:42.560Z,13.98
2019-03-26T19:45:11.184Z,12.45
2019-03-26T19:47:43.441Z,11.28
2019-03-26T19:50:12.366Z,12.35
2019-03-26T19:52:47.763Z,13.08
2019-03-26T19:55:17.321Z,13.95
2019-03-26T19:57:46.096Z,14.45
2019-03-26T20:00:15.756Z,12.20
2019-03-26T20:02:46.163Z,12.35
2019-03-26T20:05:14.974Z,11.28
2019-03-26T20:07:43.528Z,11.25
2019-03-26T20:10:14.119Z,10.72
2019-03-26T20:12:42.470Z,13.15
2019-03-26T20:15:12.935Z,10.13
2019-03-26T20:17:41.657Z,9.75
2019-03-26T20:20:12.456Z,11.05
2019-03-26T20:22:41.734Z,12.45
2019-03-26T20:25:10.443Z,11.50
2019-03-26T20:27:38.928Z,12.58
2019-03-26T20:30:09.252Z,14.60
2019-03-26T20:32:39.814Z,11.25
2019-03-26T20:35:08.465Z,10.05
2019-03-26T20:37:43.557Z,10.45
2019-03-26T20:40:13.038Z,10.98
2019-03-26T20:42:41.491Z,9.48
2019-03-26T20:45:14.195Z,9.28
2019-03-26T20:47:47.657Z,8.90
2019-03-26T20:50:18.285Z,9.78
2019-03-26T20:52:50.933Z,9.90
2019-03-26T20:55:32.621Z,8.90
2019-03-26T20:58:01.724Z,8.68
2019-03-26T21:00:38.478Z,9.40
2019-03-26T21:03:07.235Z,9.00
2019-03-26T21:05:36.028Z,9.33
2019-03-26T21:08:04.583Z,8.43
2019-03-26T21:10:32.837Z,8.58
2019-03-26T21:13:01.369Z,8.45
2019-03-26T21:15:29.697Z,8.75
2019-03-26T21:17:58.235Z,9.30
2019-03-26T21:20:26.579Z,9.05
2019-03-26T21:22:55.262Z,8.75
2019-03-26T21:25:23.528Z,8.30
2019-03-26T21:27:52.264Z,8.38
2019-03-26T21:30:20.689Z,8.63
2019-03-26T21:32:52.882Z,9.30
2019-03-26T21:35:28.914Z,8.50
2019-03-26T21:37:56.912Z,10.80
2019-03-26T21:40:25.662Z,9.45
2019-03-26T21:42:54.171Z,8.75
2019-03-26T21:45:33.617Z,9.30
2019-03-26T21:48:02.332Z,9.38
2019-03-26T21:50:30.839Z,9.23
2019-03-26T21:52:59.147Z,9.13
2019-03-26T21:55:29.175Z,10.53
2019-03-26T21:57:57.483Z,8.73
2019-03-26T22:00:26.747Z,9.38
2019-03-26T22:02:55.711Z,9.13
2019-03-26T22:05:24.227Z,8.65
2019-03-26T22:07:52.543Z,8.98
2019-03-26T22:10:21.125Z,9.38
2019-03-26T22:12:50.683Z,9.03
2019-03-26T22:15:25.111Z,9.00
2019-03-26T22:17:53.512Z,8.70
2019-03-26T22:20:21.995Z,8.80
2019-03-26T22:22:50.708Z,8.43
2019-03-26T22:25:22.200Z,8.45
2019-03-26T22:27:51.774Z,12.15
2019-03-26T22:30:20.255Z,11.18
2019-03-26T22:32:48.801Z,11.20
2019-03-26T22:35:17.075Z,11.08
2019-03-26T22:37:45.337Z,9.70
2019-03-26T22:40:14.654Z,9.15
2019-03-26T22:42:43.206Z,9.75
2019-03-26T22:45:13.226Z,9.95
2019-03-26T22:47:41.461Z,9.75
2019-03-26T22:50:11.015Z,9.73
2019-03-26T22:52:39.584Z,9.90
2019-03-26T22:55:09.001Z,10.60
2019-03-26T22:57:37.263Z,11.10
2019-03-26T23:00:12.050Z,12.00
2019-03-26T23:02:43.339Z,10.60
2019-03-26T23:05:13.337Z,10.48
2019-03-26T23:07:42.760Z,10.45
2019-03-26T23:10:13.173Z,9.15
2019-03-26T23:12:44.060Z,9.88
2019-03-26T23:15:23.295Z,9.88
2019-03-26T23:17:51.775Z,8.90
2019-03-26T23:20:20.390Z,9.53
2019-03-26T23:22:48.922Z,9.15
2019-03-26T23:25:17.847Z,8.85
2019-03-26T23:27:46.415Z,8.08
2019-03-26T23:30:15.364Z,8.75
2019-03-26T23:32:43.791Z,8.68
2019-03-26T23:35:12.111Z,8.60
2019-03-26T23:37:40.405Z,8.43
2019-03-26T23:40:09.285Z,8.65
2019-03-26T23:42:42.050Z,8.85
2019-03-26T23:45:13.634Z,8.05
2019-03-26T23:47:42.533Z,8.53
2019-03-26T23:50:11.208Z,9.30
2019-03-26T23:52:41.129Z,7.62
2019-03-26T23:55:10.854Z,8.15
2019-03-26T23:57:39.826Z,7.50
